KAPF/APF METAR and TAF weather

Enter ICAO airport designator
Station Type Date Time Source
KAPF METAR 2018/12/10 23:53 UTC NOAA

KAPF 102353Z 35006KT 10SM SCT050 OVC065 18/12 A3012 RMK AO2 SLP198 T01830117 10217 20183 53017


Station Type Date Time Source
KAPF Decoded METAR 2018/12/10 23:53 UTC NOAA

NAPLES MUNICIPAL AIRPORT, FL, United States (KAPF) 26-09N 081-46W
Dec 10, 2018 - 06:53 PM EST / 2018.12.10 2353 UTC
Wind: from the N (350 degrees) at 7 MPH (6 KT):0
Visibility: 10 mile(s):0
Sky conditions: overcast
Temperature: 64.9 F (18.3 C)
Dew Point: 53.1 F (11.7 C)
Relative Humidity: 65%
Pressure (altimeter): 30.12 in. Hg (1019 hPa)
Pressure tendency: 0.05 inches (1.7 hPa) higher than three hours ago
ob: KAPF 102353Z 35006KT 10SM SCT050 OVC065 18/12 A3012 RMK AO2 SLP198 T01830117 10217 20183 53017
cycle: 0

Station Type Date Time Source
KAPF TAF 2018/12/10 21:57 UTC NOAA

TAF
AMD KAPF 102057Z 1021/1118 32008KT P6SM FEW025 BKN045 BKN250
FM110100 31005KT P6SM FEW025
FM111400 33010KT P6SM SKC


Example: see airport list